Data for 05/05/2013

Time Sea-Level Adjusted Pressure Absolute Pressure Temperature Relative Humidity Dew Point   
(mb) (inHg) (mb) (inHg) (C) (F) (%) (C) (F)
00:05 1022 30.18 852 25.16 6.3 43.4 66 0.5 33
00:10 1022 30.18 852 25.16 6.3 43.3 66 0.5 32.9
00:15 1022 30.18 852 25.16 6.3 43.4 66 0.4 32.7
00:20 1022 30.18 852 25.16 6.3 43.4 66 0.4 32.8
00:25 1022 30.18 852 25.16 6.4 43.4 66 0.4 32.7
00:30 1022 30.18 851 25.13 6.3 43.4 67 0.7 33.3
00:35 1022 30.18 852 25.16 6.2 43.1 68 0.6 33.1
00:40 1022 30.18 852 25.16 6.2 43.1 69 0.9 33.6
00:45 1022 30.18 851 25.13 6.1 43 70 1.1 34
00:50 1022 30.18 851 25.13 6.1 43 71 1.2 34.2
00:55 1022 30.18 851 25.13 6 42.8 72 1.3 34.4
01:00 1022 30.18 851 25.13 6 42.7 73 1.5 34.6
01:05 1022 30.18 851 25.13 5.9 42.5 73 1.5 34.7
01:10 1022 30.18 851 25.13 5.8 42.5 74 1.5 34.8
01:15 1022 30.18 851 25.13 5.8 42.5 74 1.6 34.9
01:20 1022 30.18 851 25.13 5.7 42.3 75 1.6 34.9
01:25 1022 30.18 851 25.13 5.7 42.2 76 1.7 35.1
01:30 1022 30.18 851 25.13 5.6 42.1 76 1.7 35.1
01:35 1022 30.18 851 25.13 5.6 42.2 76 1.7 35.1
01:40 1022 30.18 851 25.13 5.7 42.2 76 1.8 35.3
01:45 1022 30.18 851 25.13 5.7 42.2 76 1.8 35.2
01:50 1022 30.18 851 25.13 5.6 42.2 76 1.8 35.2
01:55 1022 30.18 851 25.13 5.6 42.1 76 1.8 35.2
02:00 1022 30.18 851 25.13 5.5 42 76 1.7 35.1
02:05 1022 30.18 851 25.13 5.5 41.9 76 1.7 35
02:10 1022 30.18 851 25.13 5.5 41.9 76 1.6 34.9
02:15 1022 30.18 851 25.13 5.5 41.8 76 1.5 34.7
02:20 1022 30.18 851 25.13 5.4 41.8 75 1.5 34.6
02:25 1022 30.18 851 25.13 5.4 41.7 75 1.4 34.4
02:30 1022 30.18 851 25.13 5.4 41.7 75 1.4 34.4
02:35 1022 30.18 851 25.13 5.3 41.5 75 1.3 34.3
02:40 1022 30.18 851 25.13 5.3 41.5 75 1.1 34.1
02:45 1022 30.18 851 25.13 5.2 41.4 75 1.2 34.2
02:50 1022 30.18 851 25.13 5.2 41.3 75 1.1 33.9
02:55 1022 30.18 851 25.13 5.2 41.3 75 1.1 34
03:00 1022 30.18 851 25.13 5.1 41.2 75 1.1 33.9
03:05 1022 30.18 851 25.13 5 41.1 76 1.1 34
03:10 1022 30.18 851 25.13 5 40.9 75 0.9 33.7
03:15 1022 30.18 851 25.13 5 41 75 0.9 33.5
03:20 1022 30.18 851 25.13 4.9 40.9 75 0.8 33.5
03:25 1022 30.18 851 25.13 4.9 40.9 74 0.7 33.3
03:30 1022 30.18 851 25.13 4.9 40.8 74 0.7 33.3
03:35 1022 30.18 851 25.13 4.9 40.8 74 0.6 33.1
03:40 1022 30.18 851 25.13 4.9 40.8 74 0.6 33
03:45 1022 30.18 851 25.13 4.9 40.8 74 0.6 33.1
03:50 1022 30.18 851 25.13 4.9 40.8 73 0.5 32.9
03:55 1022 30.18 851 25.13 4.9 40.9 73 0.5 33
04:00 1022 30.18 851 25.13 4.9 40.8 73 0.5 32.9
04:05 1022 30.18 851 25.13 5 40.9 72 0.4 32.8
04:10 1022 30.18 851 25.13 5 40.9 72 0.4 32.7
04:15 1022 30.18 851 25.13 5 41 72 0.4 32.7
04:20 1022 30.18 851 25.13 5 41 72 0.3 32.6
04:25 1022 30.18 851 25.13 5 41.1 72 0.4 32.7
04:30 1021 30.15 851 25.13 5 41 72 0.4 32.6
04:35 1021 30.15 851 25.13 5 41 72 0.3 32.6
04:40 1021 30.15 851 25.13 5 41 71 0.3 32.5
04:45 1022 30.18 851 25.13 5 41.1 71 0.3 32.6
04:50 1022 30.18 851 25.13 5 41 72 0.3 32.5
04:55 1022 30.18 851 25.13 5 41 71 0.2 32.4
05:00 1022 30.18 851 25.13 5 41 71 0.2 32.4
05:05 1022 30.18 851 25.13 4.9 40.9 72 0.2 32.4
05:10 1022 30.18 851 25.13 5 40.9 71 0.2 32.4
05:15 1022 30.18 851 25.13 4.9 40.9 71 0.2 32.4
05:20 1022 30.18 851 25.13 5 41 71 0.2 32.4
05:25 1022 30.18 851 25.13 5.1 41.1 71 0.2 32.4
05:30 1022 30.18 851 25.13 5 41.1 71 0.2 32.3
05:35 1022 30.18 851 25.13 5.1 41.2 70 0.1 32.2
05:40 1022 30.18 851 25.13 5.2 41.3 69 0.1 32.1
05:45 1022 30.18 851 25.13 5.3 41.5 69 0 32
05:50 1022 30.18 851 25.13 5.3 41.6 69 0 32.1
05:55 1022 30.18 851 25.13 5.4 41.8 68 -0.1 31.9
06:00 1022 30.18 851 25.13 5.5 41.9 68 0.1 32.2
06:05 1022 30.18 851 25.13 5.6 42 68 0.2 32.3
06:10 1022 30.18 851 25.13 5.7 42.3 67 0.1 32.2
06:15 1022 30.18 851 25.13 5.7 42.3 67 0.1 32.1
06:20 1022 30.18 851 25.13 5.8 42.5 67 0.1 32.1
06:25 1022 30.18 851 25.13 5.9 42.6 65 -0.1 31.9
06:30 1022 30.18 851 25.13 6 42.8 64 -0.2 31.6
06:35 1022 30.18 851 25.13 6.2 43.2 63 -0.3 31.5
06:40 1022 30.18 851 25.13 6.4 43.5 62 -0.3 31.5
06:45 1022 30.18 851 25.13 6.5 43.8 62 -0.2 31.6
06:50 1022 30.18 851 25.13 6.6 43.9 61 -0.3 31.4
06:55 1022 30.18 851 25.13 6.7 44.1 61 -0.3 31.5
07:00 1022 30.18 851 25.13 6.8 44.2 61 -0.3 31.5
07:05 1022 30.18 851 25.13 6.8 44.3 61 -0.2 31.6
07:10 1022 30.18 851 25.13 6.9 44.4 60 -0.3 31.4
07:15 1022 30.18 851 25.13 6.9 44.4 59 -0.6 30.9
07:20 1022 30.18 851 25.13 7.1 44.8 58 -0.7 30.7
07:25 1022 30.18 851 25.13 7.2 44.9 57 -0.7 30.8
07:30 1022 30.18 851 25.13 7.3 45.2 56 -0.8 30.6
07:35 1022 30.18 851 25.13 7.8 46 55 -0.8 30.6
07:40 1022 30.18 851 25.13 8 46.3 53 -1 30.2
07:45 1022 30.18 851 25.13 7.9 46.2 54 -0.9 30.3
07:50 1022 30.18 851 25.13 7.8 46.1 54 -0.8 30.5
07:55 1022 30.18 851 25.13 8 46.4 52 -1.2 29.9
08:00 1022 30.18 851 25.13 8.2 46.7 53 -0.8 30.6
08:05 1022 30.18 851 25.13 8.2 46.7 53 -0.8 30.6
08:10 1022 30.18 851 25.13 8.4 47 52 -0.8 30.6
08:15 1022 30.18 851 25.13 8.2 46.8 53 -0.8 30.5
08:20 1022 30.18 851 25.13 8.6 47.5 53 -0.5 31.1
08:25 1022 30.18 851 25.13 8.7 47.6 52 -0.6 30.9
08:30 1022 30.18 851 25.13 8.6 47.5 52 -0.6 31
08:35 1022 30.18 851 25.13 8.9 48 51 -0.6 30.9
08:40 1022 30.18 851 25.13 9 48.2 51 -0.5 31.1
08:45 1021 30.15 851 25.13 9.3 48.7 50 -0.6 30.8
08:50 1021 30.15 851 25.13 9.4 48.9 50 -0.4 31.2
08:55 1021 30.15 851 25.13 9.5 49 50 -0.4 31.3
09:00 1021 30.15 851 25.13 9.4 48.9 51 -0.2 31.7
09:05 1021 30.15 851 25.13 9.5 49 49 -0.7 30.7
09:10 1021 30.15 850 25.1 9.7 49.4 49 -0.5 31.1
09:15 1021 30.15 850 25.1 9.8 49.7 48 -0.6 31
09:20 1021 30.15 850 25.1 10 50.1 49 -0.1 31.7
09:25 1021 30.15 850 25.1 10.2 50.3 49 0 32.1
09:30 1021 30.15 850 25.1 10.2 50.3 48 -0.4 31.3
09:35 1021 30.15 850 25.1 10.6 51 47 -0.3 31.5
09:40 1021 30.15 850 25.1 10.8 51.4 47 -0.2 31.7
09:45 1021 30.15 850 25.1 10.6 51.1 48 0.1 32.2
09:50 1021 30.15 850 25.1 10.7 51.3 46 -0.3 31.5
09:55 1021 30.15 850 25.1 11.1 51.9 45 -0.2 31.6
10:00 1021 30.15 850 25.1 10.9 51.7 45 -0.4 31.4
10:05 1021 30.15 850 25.1 10.9 51.5 45 -0.4 31.3
10:10 1021 30.15 850 25.1 11.2 52.1 44 -0.6 31
10:15 1021 30.15 850 25.1 11.5 52.6 44 -0.3 31.4
10:20 1021 30.15 850 25.1 11.4 52.6 43 -0.6 30.8
10:25 1021 30.15 850 25.1 11.8 53.2 43 -0.2 31.7
10:30 1021 30.15 850 25.1 11.5 52.8 43 -0.6 30.9
10:35 1021 30.15 850 25.1 12.2 53.9 41 -0.7 30.8
10:40 1021 30.15 850 25.1 12.3 54.2 41 -0.5 31.1
10:45 1021 30.15 850 25.1 12.1 53.7 41 -0.7 30.7
10:50 1021 30.15 850 25.1 12.2 53.9 42 -0.3 31.4
10:55 1021 30.15 850 25.1 12 53.6 42 -0.5 31
11:00 1021 30.15 850 25.1 11.9 53.4 42 -0.7 30.8
11:05 1021 30.15 850 25.1 11.9 53.4 42 -0.4 31.3
11:10 1020 30.12 850 25.1 12.1 53.8 41 -0.8 30.6
11:15 1020 30.12 850 25.1 12.2 53.9 41 -0.5 31.1
11:20 1020 30.12 849 25.07 12.6 54.7 41 -0.4 31.3
11:25 1020 30.12 849 25.07 12.8 55 39 -0.8 30.5
11:30 1020 30.12 849 25.07 13.5 56.4 38 -0.5 31
11:35 1020 30.12 849 25.07 13.1 55.5 39 -0.3 31.4
11:40 1020 30.12 849 25.07 13.3 55.9 40 0.1 32.2
11:45 1020 30.12 849 25.07 13 55.4 39 -0.7 30.8
11:50 1020 30.12 849 25.07 12.9 55.2 40 -0.3 31.4
11:55 1020 30.12 849 25.07 12.8 55.1 39 -0.7 30.7
12:00 1020 30.12 849 25.07 12.9 55.1 39 -0.5 31
12:05 1020 30.12 849 25.07 13 55.4 39 -0.6 30.9
12:10 1020 30.12 849 25.07 13.7 56.6 34 -1.9 28.6
12:15 1020 30.12 849 25.07 14 57.3 37 -0.5 31.1
12:20 1020 30.12 849 25.07 14 57.2 37 -0.4 31.3
12:25 1020 30.12 849 25.07 14.1 57.3 38 -0.1 31.9
12:30 1020 30.12 849 25.07 14.5 58.1 35 -0.5 31
12:35 1019 30.09 849 25.07 14.3 57.7 36 -0.5 31.1
12:40 1019 30.09 849 25.07 14.3 57.7 35 -1 30.1
12:45 1019 30.09 849 25.07 14.4 57.9 35 -0.7 30.8
12:50 1019 30.09 849 25.07 13.9 57.1 37 -0.6 30.9
12:55 1019 30.09 848 25.04 14.3 57.7 34 -1.2 29.8
13:00 1019 30.09 848 25.04 14.5 58.1 34 -0.9 30.3
13:05 1019 30.09 848 25.04 14.9 58.8 33 -1 30.1
13:10 1019 30.09 848 25.04 14.9 58.7 34 -1 30.3
13:15 1019 30.09 848 25.04 15 59 33 -0.9 30.4
13:20 1019 30.09 848 25.04 15.3 59.5 33 -0.9 30.3
13:25 1019 30.09 848 25.04 15.8 60.5 33 -0.3 31.5
13:30 1019 30.09 848 25.04 15.5 60 34 -0.3 31.4
13:35 1019 30.09 848 25.04 15.2 59.3 34 -0.6 30.8
13:40 1019 30.09 848 25.04 15.3 59.5 36 0.2 32.4
13:45 1019 30.09 848 25.04 15.4 59.8 33 -0.6 30.9
13:50 1019 30.09 848 25.04 15.1 59.2 35 -0.3 31.4
13:55 1019 30.09 848 25.04 15.2 59.3 35 0 32.1
14:00 1019 30.09 848 25.04 15.1 59.1 35 -0 32
14:05 1019 30.09 848 25.04 15.3 59.6 35 0.1 32.1
14:10 1019 30.09 848 25.04 15.4 59.8 35 0.3 32.5
14:15 1019 30.09 848 25.04 15.5 59.8 34 -0.2 31.6
14:20 1019 30.09 848 25.04 15.9 60.7 34 0.1 32.2
14:25 1019 30.09 848 25.04 15.4 59.7 34 -0.3 31.4
14:30 1019 30.09 848 25.04 15.7 60.2 35 0.3 32.6
14:35 1019 30.09 848 25.04 15.7 60.2 34 0 32
14:40 1019 30.09 848 25.04 15.9 60.7 34 0.3 32.6
14:45 1019 30.09 848 25.04 15.5 60 34 -0.1 31.7
14:50 1019 30.09 848 25.04 15.7 60.3 33 -0.3 31.5
14:55 1019 30.09 848 25.04 15.6 60.2 33 -0.5 31.1
15:00 1018 30.06 848 25.04 15.8 60.5 32 -0.6 30.8
15:05 1018 30.06 848 25.04 16.2 61.2 34 0.5 32.9
15:10 1018 30.06 848 25.04 16.2 61.2 31 -0.6 30.9
15:15 1018 30.06 848 25.04 15.8 60.5 33 -0.4 31.3
15:20 1018 30.06 848 25.04 16.3 61.3 33 0 32.1
15:25 1018 30.06 847 25.01 16.2 61.2 33 -0.1 31.7
15:30 1018 30.06 847 25.01 16.1 61.1 33 -0.1 31.7
15:35 1018 30.06 847 25.01 16.1 60.9 32 -0.4 31.2
15:40 1018 30.06 847 25.01 16.6 61.8 33 0.3 32.5
15:45 1018 30.06 847 25.01 16.4 61.6 33 0.4 32.7
15:50 1018 30.06 847 25.01 16.5 61.7 33 0.1 32.2
15:55 1018 30.06 847 25.01 16.6 61.8 31 -0.4 31.4
16:00 1018 30.06 847 25.01 16.5 61.7 31 -0.5 31
16:05 1018 30.06 847 25.01 16.8 62.2 32 0.2 32.3
16:10 1018 30.06 847 25.01 16.3 61.3 33 -0 31.9
16:15 1018 30.06 847 25.01 16.3 61.4 32 -0.2 31.7
16:20 1018 30.06 847 25.01 16.4 61.5 31 -0.6 31
16:25 1018 30.06 847 25.01 16.3 61.4 32 -0.2 31.6
16:30 1018 30.06 847 25.01 16 60.7 32 -0.6 31
16:35 1018 30.06 847 25.01 16 60.8 32 -0.5 31.1
16:40 1018 30.06 847 25.01 15.9 60.7 32 -0.6 30.9
16:45 1018 30.06 847 25.01 16.2 61.1 32 -0.6 31
16:50 1018 30.06 847 25.01 16.2 61.2 32 -0.4 31.3
16:55 1018 30.06 847 25.01 16.1 60.9 32 -0.4 31.2
17:00 1018 30.06 847 25.01 16 60.7 33 -0.4 31.4
17:05 1018 30.06 847 25.01 15.9 60.6 33 -0.3 31.4
17:10 1018 30.06 847 25.01 15.8 60.4 32 -0.5 31
17:15 1018 30.06 847 25.01 15.8 60.5 32 -0.7 30.7
17:20 1018 30.06 847 25.01 15.8 60.4 32 -0.8 30.5
17:25 1018 30.06 847 25.01 15.9 60.5 32 -0.9 30.4
17:30 1018 30.06 847 25.01 15.8 60.4 32 -0.8 30.6
17:35 1018 30.06 847 25.01 15.6 60.1 33 -0.7 30.7
17:40 1018 30.06 847 25.01 15.4 59.7 32 -1.2 29.9
17:45 1018 30.06 847 25.01 15.4 59.7 32 -1 30.3
17:50 1018 30.06 847 25.01 15.3 59.5 32 -1.2 29.9
17:55 1018 30.06 847 25.01 15.2 59.4 32 -1.1 30
18:00 1018 30.06 847 25.01 15.1 59.1 33 -0.9 30.3
18:05 1018 30.06 847 25.01 15.1 59.2 33 -0.9 30.3
18:10 1018 30.06 847 25.01 15 59 34 -0.8 30.6
18:15 1018 30.06 847 25.01 15 58.9 34 -0.8 30.6
18:20 1018 30.06 847 25.01 14.8 58.6 34 -1 30.2
18:25 1018 30.06 847 25.01 14.6 58.3 34 -1 30.2
18:30 1018 30.06 847 25.01 14.6 58.2 34 -0.9 30.3
18:35 1018 30.06 847 25.01 14.5 58 35 -0.9 30.4
18:40 1018 30.06 847 25.01 14.4 57.9 34 -1.2 29.9
18:45 1018 30.06 847 25.01 14.3 57.7 35 -1 30.2
18:50 1018 30.06 847 25.01 14.2 57.5 35 -1 30.3
18:55 1018 30.06 847 25.01 14.1 57.3 35 -1 30.3
19:00 1018 30.06 847 25.01 14 57.1 36 -0.9 30.4
19:05 1018 30.06 847 25.01 13.8 56.9 37 -0.7 30.7
19:10 1018 30.06 847 25.01 13.7 56.7 37 -0.7 30.8
19:15 1018 30.06 847 25.01 13.6 56.5 37 -0.8 30.5
19:20 1018 30.06 847 25.01 13.5 56.3 37 -0.9 30.4
19:25 1018 30.06 847 25.01 13.4 56.1 37 -0.8 30.5
19:30 1018 30.06 847 25.01 13.2 55.8 38 -0.8 30.5
19:35 1018 30.06 847 25.01 13 55.5 38 -0.8 30.5
19:40 1018 30.06 847 25.01 12.9 55.1 38 -0.9 30.4
19:45 1018 30.06 847 25.01 12.7 54.8 39 -0.9 30.3
19:50 1018 30.06 847 25.01 12.5 54.5 39 -1 30.2
19:55 1018 30.06 847 25.01 12.4 54.4 39 -0.9 30.3
20:00 1018 30.06 847 25.01 12.3 54.1 40 -1 30.1
20:05 1018 30.06 847 25.01 12.1 53.8 40 -1.1 30
20:10 1018 30.06 847 25.01 12 53.7 40 -1.1 29.9
20:15 1018 30.06 847 25.01 12 53.5 40 -1.1 29.9
20:20 1018 30.06 847 25.01 11.9 53.4 40 -1.4 29.5
20:25 1018 30.06 847 25.01 11.9 53.4 40 -1.2 29.8
20:30 1018 30.06 847 25.01 11.8 53.2 40 -1.2 29.8
20:35 1018 30.06 848 25.04 11.8 53.2 40 -1.3 29.7
20:40 1018 30.06 848 25.04 11.7 53 41 -1.1 30
20:45 1018 30.06 848 25.04 11.5 52.6 42 -0.9 30.4
20:50 1018 30.06 848 25.04 11.2 52.1 42 -1.2 29.9
20:55 1018 30.06 848 25.04 11.2 52.1 42 -1.1 30
21:00 1018 30.06 848 25.04 11.2 52.1 43 -1 30.1
21:05 1018 30.06 848 25.04 11.1 52 42 -1.1 30
21:10 1019 30.09 848 25.04 11.1 52 42 -1.2 29.9
21:15 1019 30.09 848 25.04 11.1 51.9 42 -1.2 29.8
21:20 1019 30.09 848 25.04 11 51.8 42 -1.3 29.7
21:25 1019 30.09 848 25.04 11 51.8 42 -1.3 29.7
21:30 1018 30.06 848 25.04 10.9 51.6 43 -1.2 29.8
21:35 1018 30.06 848 25.04 10.9 51.5 43 -1.3 29.7
21:40 1018 30.06 848 25.04 10.8 51.5 43 -1.3 29.7
21:45 1018 30.06 848 25.04 10.9 51.5 43 -1.3 29.7
21:50 1018 30.06 848 25.04 10.8 51.5 43 -1.4 29.6
21:55 1018 30.06 848 25.04 10.8 51.4 43 -1.3 29.6
22:00 1018 30.06 848 25.04 10.8 51.4 43 -1.4 29.5
22:05 1018 30.06 848 25.04 10.8 51.4 43 -1.4 29.5
22:10 1018 30.06 848 25.04 10.8 51.4 43 -1.3 29.7
22:15 1018 30.06 847 25.01 10.7 51.3 43 -1.3 29.6
22:20 1018 30.06 848 25.04 10.8 51.4 43 -1.4 29.5
22:25 1018 30.06 848 25.04 10.7 51.2 43 -1.3 29.6
22:30 1018 30.06 848 25.04 10.7 51.2 43 -1.4 29.5
22:35 1018 30.06 848 25.04 10.7 51.2 43 -1.2 29.8
22:40 1018 30.06 847 25.01 10.6 51.1 43 -1.3 29.7
22:45 1018 30.06 847 25.01 10.6 51.1 43 -1.3 29.6
22:50 1018 30.06 847 25.01 10.6 51.1 43 -1.3 29.7
22:55 1018 30.06 847 25.01 10.6 51 44 -1.2 29.8
23:00 1018 30.06 848 25.04 10.6 51 44 -1.2 29.9
23:05 1018 30.06 848 25.04 10.4 50.7 44 -1.1 29.9
23:10 1018 30.06 848 25.04 10.3 50.6 45 -1.1 29.9
23:15 1018 30.06 848 25.04 10.3 50.6 45 -1.2 29.9
23:20 1018 30.06 848 25.04 10.3 50.5 45 -1 30.1
23:25 1018 30.06 848 25.04 10.2 50.3 45 -1.1 30
23:30 1018 30.06 848 25.04 10.2 50.4 45 -1.2 29.8
23:35 1018 30.06 848 25.04 10.2 50.4 46 -1 30.2
23:40 1018 30.06 848 25.04 10.1 50.2 46 -1 30.2
23:45 1018 30.06 848 25.04 10.1 50.1 45 -1.2 29.8
23:50 1018 30.06 848 25.04 10.1 50.1 45 -1.2 29.8
23:55 1018 30.06 848 25.04 10 50.1 46 -1.1 30
24:00 1018 30.06 848 25.04 10 50 45 -1.2 29.8